Time;durP1;ratioP1;P1;durP2;ratioP2;P2;SDS_P1;SDS_P2;PMS_P1;PMS_P2;Temp;Humidity;BMP_temperature;BMP_pressure;BME280_temperature;BME280_humidity;BME280_pressure;Samples;Min_cycle;Max_cycle;Signal;HPM_P1;HPM_P2
2023/03/28 00:01:57;;;;;;;5.17;4.27;;;-0.30;99.90;-1.50;99705;;;;586503;240;24041;-84
2023/03/28 00:04:22;;;;;;;6.20;4.47;;;-0.40;99.90;-1.50;99700;;;;586465;240;24072;-82
2023/03/28 00:06:52;;;;;;;7.00;4.70;;;-0.50;99.90;-1.60;99697;;;;586775;240;25139;-81
2023/03/28 00:09:22;;;;;;;7.93;4.37;;;-0.50;99.90;-1.60;99696;;;;586777;236;24115;-82
2023/03/28 00:11:51;;;;;;;8.93;4.47;;;-0.50;99.90;-1.60;99693;;;;586190;241;24068;-80
2023/03/28 00:14:15;;;;;;;8.33;5.43;;;-0.50;99.90;-1.70;99685;;;;585712;241;24053;-77
2023/03/28 00:16:46;;;;;;;7.00;4.87;;;-0.60;99.90;-1.70;99694;;;;585799;241;24101;-77
2023/03/28 00:19:14;;;;;;;9.83;5.93;;;-0.60;99.90;-1.70;99686;;;;580464;241;35105;-74
2023/03/28 00:21:48;;;;;;;8.63;3.63;;;-0.60;99.90;-1.80;99681;;;;585429;241;24071;-75
2023/03/28 00:24:15;;;;;;;7.73;4.80;;;-0.60;99.90;-1.70;99686;;;;585219;241;24472;-74
2023/03/28 00:26:40;;;;;;;10.63;4.80;;;-0.60;99.90;-1.70;99678;;;;584977;241;24095;-75
2023/03/28 00:29:09;;;;;;;7.07;4.87;;;-0.60;99.90;-1.70;99676;;;;585247;241;24073;-74
2023/03/28 00:31:40;;;;;;;8.00;4.50;;;-0.60;99.90;-1.80;99679;;;;590037;241;24055;-75
2023/03/28 00:34:05;;;;;;;5.17;4.40;;;-0.70;99.90;-1.80;99667;;;;585257;241;24070;-73
2023/03/28 00:36:35;;;;;;;8.27;4.80;;;-0.60;99.90;-1.80;99672;;;;585367;241;24069;-78
2023/03/28 00:39:09;;;;;;;5.83;4.30;;;-0.60;99.90;-1.80;99672;;;;585368;241;24052;-75
2023/03/28 00:41:34;;;;;;;6.63;4.57;;;-0.70;99.90;-1.80;99662;;;;584773;241;24126;-75
2023/03/28 00:43:59;;;;;;;6.10;4.60;;;-0.70;99.90;-1.90;99662;;;;584808;241;25133;-75
2023/03/28 00:46:31;;;;;;;7.33;5.03;;;-0.70;99.90;-1.90;99660;;;;585215;241;24078;-79
2023/03/28 00:49:06;;;;;;;5.30;4.27;;;-0.70;99.90;-1.90;99655;;;;585192;241;25117;-79
2023/03/28 00:51:34;;;;;;;5.82;4.72;;;-0.70;99.90;-1.90;99649;;;;589092;241;35183;-75
2023/03/28 00:54:02;;;;;;;6.53;3.00;;;-0.70;99.90;-1.90;99652;;;;585068;241;24230;-79
2023/03/28 00:56:30;;;;;;;5.10;4.50;;;-0.80;99.90;-1.90;99661;;;;584981;241;35437;-80
2023/03/28 00:59:00;;;;;;;6.43;2.70;;;-0.80;99.90;-1.90;99658;;;;585009;241;24113;-80
2023/03/28 01:01:27;;;;;;;5.80;4.50;;;-0.80;99.90;-2.00;99659;;;;584853;241;24086;-79
2023/03/28 01:04:01;;;;;;;4.53;4.00;;;-0.90;99.90;-2.00;99667;;;;585714;236;24043;-76
2023/03/28 01:06:26;;;;;;;6.57;4.20;;;-0.80;99.90;-2.00;99672;;;;593266;239;24013;-74
2023/03/28 01:08:55;;;;;;;6.53;4.20;;;-0.90;99.90;-2.10;99666;;;;585858;241;24038;-76
2023/03/28 01:11:20;;;;;;;8.50;4.37;;;-1.00;99.90;-2.10;99662;;;;585343;241;24050;-75
2023/03/28 01:13:48;;;;;;;8.87;4.83;;;-1.00;99.90;-2.20;99667;;;;590679;239;24206;-76
2023/03/28 01:16:16;;;;;;;11.73;5.37;;;-1.00;99.90;-2.20;99663;;;;587073;240;24050;-75
2023/03/28 01:18:50;;;;;;;10.33;6.03;;;-1.00;99.90;-2.20;99672;;;;594379;237;24086;-75
2023/03/28 01:21:39;;;;;;;13.20;6.33;;;-1.00;99.90;-2.10;99672;;;;585934;240;24065;-75
2023/03/28 01:24:22;;;;;;;11.30;5.57;;;-1.00;99.90;-2.10;99670;;;;582335;241;24074;-75
2023/03/28 01:26:58;;;;;;;12.90;5.60;;;-1.00;99.90;-2.10;99672;;;;604872;237;24093;-77
2023/03/28 01:30:03;;;;;;;12.53;5.83;;;-1.00;99.90;-2.10;99675;;;;597435;236;24044;-76
2023/03/28 01:32:55;;;;;;;8.40;4.80;;;-1.00;99.90;-2.00;99677;;;;594545;241;24050;-76
2023/03/28 01:35:47;;;;;;;7.10;5.23;;;-0.90;99.90;-2.00;99679;;;;595552;236;24062;-75
2023/03/28 01:38:47;;;;;;;7.70;5.00;;;-0.80;99.90;-1.90;99677;;;;601714;236;25166;-75
2023/03/28 01:41:34;;;;;;;7.20;5.60;;;-0.80;99.90;-1.90;99680;;;;606008;236;24074;-76
2023/03/28 01:44:36;;;;;;;6.00;5.00;;;-0.80;99.90;-1.80;99696;;;;606456;236;24042;-75
2023/03/28 01:47:13;;;;;;;5.97;4.60;;;-0.70;99.90;-1.80;99691;;;;601353;234;24072;-77
2023/03/28 01:50:02;;;;;;;6.03;4.80;;;-0.70;99.90;-1.70;99695;;;;596901;236;24086;-75
2023/03/28 01:52:39;;;;;;;5.83;4.63;;;-0.60;99.90;-1.70;99691;;;;605493;236;24037;-77
2023/03/28 01:55:29;;;;;;;4.97;4.57;;;-0.60;99.90;-1.70;99690;;;;605589;236;24079;-77
2023/03/28 01:58:13;;;;;;;6.07;4.73;;;-0.60;99.90;-1.60;99696;;;;605669;236;24030;-78
2023/03/28 02:00:42;;;;;;;5.50;4.50;;;-0.50;99.90;-1.60;99697;;;;596561;236;24031;-77
2023/03/28 02:03:12;;;;;;;7.20;5.20;;;-0.50;99.90;-1.60;99697;;;;605745;236;24026;-76
2023/03/28 02:05:40;;;;;;;5.77;4.57;;;-0.50;99.90;-1.50;99695;;;;607064;236;24037;-77
2023/03/28 02:08:07;;;;;;;5.67;4.53;;;-0.40;99.90;-1.50;99701;;;;605901;236;24056;-75
2023/03/28 02:10:35;;;;;;;12.30;5.57;;;-0.40;99.90;-1.40;99701;;;;606327;233;24107;-77
2023/03/28 02:13:09;;;;;;;7.80;5.83;;;-0.40;99.90;-1.40;99704;;;;606314;236;24039;-76
2023/03/28 02:15:37;;;;;;;7.23;5.50;;;-0.40;99.90;-1.40;99706;;;;606062;236;25108;-76
2023/03/28 02:18:05;;;;;;;5.93;4.30;;;-0.30;99.90;-1.40;99706;;;;606448;236;24016;-74
2023/03/28 02:20:33;;;;;;;7.47;5.57;;;-0.30;99.90;-1.40;99716;;;;605202;236;24034;-74
2023/03/28 02:23:06;;;;;;;9.40;4.70;;;-0.30;99.90;-1.30;99711;;;;606039;236;24063;-75
2023/03/28 02:25:35;;;;;;;4.80;4.30;;;-0.30;99.90;-1.30;99719;;;;601875;236;24071;-75
2023/03/28 02:28:04;;;;;;;5.13;3.67;;;-0.30;99.90;-1.40;99726;;;;607314;236;24043;-75
2023/03/28 02:30:31;;;;;;;5.67;3.73;;;-0.30;99.90;-1.40;99726;;;;606852;236;24094;-76
2023/03/28 02:32:59;;;;;;;4.00;3.60;;;-0.30;99.90;-1.50;99722;;;;597479;236;24029;-77
2023/03/28 02:35:33;;;;;;;5.03;4.43;;;-0.40;99.90;-1.50;99721;;;;607594;236;24101;-76
2023/03/28 02:38:06;;;;;;;5.80;4.37;;;-0.40;99.90;-1.50;99734;;;;599384;236;35064;-76
2023/03/28 02:40:51;;;;;;;1.70;1.60;;;-0.40;99.90;-1.50;99729;;;;601117;236;24049;-77
2023/03/28 02:43:53;;;;;;;4.47;3.37;;;-0.40;99.90;-1.60;99734;;;;601109;236;25084;-77
2023/03/28 02:46:34;;;;;;;4.83;3.67;;;-0.50;99.90;-1.60;99744;;;;600849;236;24084;-76
2023/03/28 02:49:02;;;;;;;3.43;3.10;;;-0.50;99.90;-1.60;99745;;;;605416;236;24074;-79
2023/03/28 02:51:57;;;;;;;6.10;3.47;;;-0.60;99.90;-1.70;99750;;;;607394;236;24064;-76
2023/03/28 02:54:35;;;;;;;3.57;3.07;;;-0.60;99.90;-1.70;99758;;;;601414;236;24024;-79
2023/03/28 02:57:23;;;;;;;2.67;2.23;;;-0.60;99.90;-1.70;99756;;;;600184;236;24039;-79
2023/03/28 02:59:51;;;;;;;2.07;1.57;;;-0.60;99.90;-1.70;99760;;;;596915;236;24058;-80
2023/03/28 03:02:22;;;;;;;1.93;1.70;;;-0.70;99.90;-1.80;99767;;;;605312;236;24052;-82
2023/03/28 03:04:50;;;;;;;1.53;1.43;;;-0.70;99.90;-1.80;99768;;;;597026;236;24066;-82
2023/03/28 03:07:18;;;;;;;3.10;1.63;;;-0.70;99.90;-1.80;99775;;;;597056;236;24016;-82
2023/03/28 03:09:52;;;;;;;0.87;0.87;;;-0.80;99.90;-1.80;99768;;;;596899;236;24044;-77
2023/03/28 03:12:17;;;;;;;2.10;1.62;;;-0.80;99.90;-1.80;99771;;;;591139;236;34903;-83
2023/03/28 03:14:44;;;;;;;0.83;0.60;;;-0.80;99.90;-1.80;99764;;;;596452;236;24114;-80
2023/03/28 03:17:12;;;;;;;0.97;0.97;;;-0.70;99.90;-1.80;99774;;;;596616;236;24046;-81
2023/03/28 03:19:42;;;;;;;0.83;0.83;;;-0.70;99.90;-1.80;99775;;;;596600;236;24036;-81
2023/03/28 03:22:08;;;;;;;1.23;1.00;;;-0.80;99.90;-1.80;99776;;;;596947;236;24069;-78
2023/03/28 03:24:36;;;;;;;1.60;1.50;;;-0.80;99.90;-1.90;99785;;;;597112;236;24086;-77
2023/03/28 03:27:04;;;;;;;1.20;1.10;;;-0.80;99.90;-1.90;99786;;;;597021;236;24036;-82
2023/03/28 03:29:33;;;;;;;1.10;1.10;;;-0.90;99.90;-1.90;99789;;;;597122;236;24096;-76
2023/03/28 03:32:01;;;;;;;1.10;1.00;;;-0.90;99.90;-2.00;99793;;;;597043;236;24100;-77
2023/03/28 03:34:28;;;;;;;1.37;1.27;;;-0.90;99.90;-2.00;99799;;;;597054;236;24020;-76
2023/03/28 03:36:56;;;;;;;3.22;2.42;;;-0.90;99.90;-2.00;99802;;;;592962;236;34849;-80
2023/03/28 03:39:24;;;;;;;0.80;0.80;;;-1.00;99.90;-2.10;99796;;;;598209;236;25044;-82
2023/03/28 03:41:52;;;;;;;1.17;1.03;;;-1.00;99.90;-2.10;99809;;;;597906;236;24036;-84
2023/03/28 03:44:21;;;;;;;1.93;0.83;;;-1.10;99.90;-2.10;99806;;;;597843;236;25100;-79
2023/03/28 03:46:49;;;;;;;1.03;0.90;;;-1.10;99.90;-2.20;99807;;;;597535;236;24022;-78
2023/03/28 03:49:17;;;;;;;1.07;1.07;;;-1.20;99.90;-2.20;99805;;;;597564;236;24020;-83
2023/03/28 03:51:45;;;;;;;0.83;0.83;;;-1.20;99.90;-2.30;99809;;;;597538;236;24026;-79
2023/03/28 03:54:16;;;;;;;1.60;1.50;;;-1.30;99.90;-2.40;99805;;;;597510;236;24033;-82
2023/03/28 03:56:41;;;;;;;0.60;0.60;;;-1.30;99.90;-2.40;99798;;;;601280;236;25092;-77
2023/03/28 03:59:13;;;;;;;1.00;0.90;;;-1.40;99.90;-2.50;99811;;;;596918;236;24038;-78
2023/03/28 04:01:41;;;;;;;1.70;1.60;;;-1.50;99.90;-2.60;99806;;;;589552;241;24075;-81
2023/03/28 04:04:06;;;;;;;1.37;1.27;;;-1.60;99.90;-2.70;99807;;;;585961;241;24071;-85
2023/03/28 04:06:33;;;;;;;3.10;1.80;;;-1.70;99.90;-2.80;99808;;;;606251;236;24037;-82
2023/03/28 04:09:01;;;;;;;1.77;1.40;;;-1.80;99.90;-2.90;99820;;;;596403;237;24113;-83
2023/03/28 04:11:29;;;;;;;3.23;1.30;;;-1.90;99.90;-3.00;99819;;;;607471;232;24154;-84
2023/03/28 04:13:57;;;;;;;1.43;1.33;;;-2.00;99.90;-3.10;99812;;;;598178;236;24032;-82
2023/03/28 04:16:24;;;;;;;1.23;1.20;;;-2.00;99.90;-3.20;99820;;;;596489;237;24034;-83
2023/03/28 04:18:52;;;;;;;1.43;1.33;;;-2.10;99.90;-3.20;99830;;;;595342;237;24006;-78
2023/03/28 04:21:20;;;;;;;1.40;1.30;;;-2.20;99.90;-3.30;99839;;;;597113;236;24053;-77
2023/03/28 04:23:48;;;;;;;2.10;1.20;;;-2.20;99.90;-3.40;99842;;;;594744;236;24060;-83
2023/03/28 04:26:19;;;;;;;2.80;1.73;;;-2.30;99.90;-3.40;99832;;;;596941;236;24024;-80
2023/03/28 04:28:44;;;;;;;2.13;1.93;;;-2.40;99.90;-3.40;99845;;;;596421;236;24024;-83
2023/03/28 04:31:12;;;;;;;2.30;2.10;;;-2.50;99.90;-3.50;99841;;;;596460;236;24083;-83
2023/03/28 04:33:40;;;;;;;2.30;2.10;;;-2.50;99.90;-3.60;99848;;;;596660;236;24048;-83
2023/03/28 04:36:12;;;;;;;2.90;2.10;;;-2.50;99.90;-3.60;99849;;;;596512;236;25065;-81
2023/03/28 04:38:36;;;;;;;2.40;2.20;;;-2.60;99.90;-3.70;99856;;;;605648;236;24044;-82
2023/03/28 04:41:04;;;;;;;2.83;2.07;;;-2.60;99.90;-3.70;99855;;;;596582;236;24055;-78
2023/03/28 04:43:31;;;;;;;3.90;2.35;;;-2.70;99.90;-3.70;99848;;;;600678;236;34937;-76
2023/03/28 04:46:00;;;;;;;1.73;1.60;;;-2.70;99.90;-3.80;99856;;;;596682;236;24080;-83
2023/03/28 04:48:27;;;;;;;3.00;2.10;;;-2.70;99.90;-3.80;99858;;;;607193;232;25068;-81
2023/03/28 04:50:55;;;;;;;3.67;2.47;;;-2.70;99.90;-3.80;99868;;;;597867;236;24022;-81
2023/03/28 04:53:23;;;;;;;2.30;2.10;;;-2.70;99.90;-3.80;99871;;;;597492;236;24043;-83
2023/03/28 04:55:52;;;;;;;1.83;1.60;;;-2.80;99.90;-3.90;99867;;;;597803;236;25099;-83
2023/03/28 04:58:19;;;;;;;1.93;1.80;;;-2.80;99.90;-3.90;99878;;;;597043;236;24088;-83
2023/03/28 05:00:48;;;;;;;1.63;1.53;;;-2.80;99.90;-3.90;99874;;;;606456;236;24021;-83
2023/03/28 05:03:19;;;;;;;5.07;1.77;;;-2.80;99.90;-3.90;99871;;;;606680;236;24047;-81
2023/03/28 05:05:48;;;;;;;2.23;1.93;;;-2.90;99.90;-3.90;99877;;;;596901;236;24014;-76
2023/03/28 05:08:20;;;;;;;2.40;1.87;;;-2.80;99.90;-3.90;99874;;;;606495;236;24028;-77
2023/03/28 05:10:47;;;;;;;3.30;2.20;;;-2.80;99.90;-3.90;99881;;;;596319;236;24051;-82
2023/03/28 05:13:12;;;;;;;1.40;1.40;;;-2.80;99.90;-3.90;99877;;;;596651;236;24037;-79
2023/03/28 05:15:41;;;;;;;2.30;2.10;;;-2.80;99.90;-3.90;99893;;;;597291;236;24076;-80
2023/03/28 05:18:10;;;;;;;2.30;2.10;;;-2.70;99.90;-3.80;99891;;;;597138;236;24037;-78
2023/03/28 05:20:37;;;;;;;3.57;2.47;;;-2.80;99.90;-3.80;99894;;;;597213;236;24019;-77
2023/03/28 05:23:08;;;;;;;2.93;2.33;;;-2.70;99.90;-3.70;99896;;;;597252;236;24003;-77
2023/03/28 05:25:36;;;;;;;3.70;2.50;;;-2.50;99.90;-3.50;99896;;;;596708;236;24042;-77
2023/03/28 05:28:06;;;;;;;5.43;2.80;;;-2.20;99.90;-3.20;99907;;;;596529;236;24036;-76
2023/03/28 05:30:33;;;;;;;3.77;2.47;;;-2.20;99.90;-2.70;99905;;;;596290;236;24060;-75
2023/03/28 05:33:01;;;;;;;2.63;2.23;;;-1.70;99.90;-1.60;99920;;;;596598;236;24057;-76
2023/03/28 05:35:29;;;;;;;5.00;2.50;;;-0.70;99.90;-0.80;99929;;;;596530;236;24055;-77
2023/03/28 05:37:57;;;;;;;5.00;3.07;;;0.20;99.90;-0.80;99927;;;;596730;236;24051;-76
2023/03/28 05:40:25;;;;;;;6.07;3.40;;;0.20;99.90;-1.00;99927;;;;596718;236;24053;-75
2023/03/28 05:42:53;;;;;;;12.13;4.30;;;0.20;99.90;-0.10;99930;;;;596956;236;24101;-76
2023/03/28 05:45:21;;;;;;;2.60;1.83;;;0.80;99.90;1.00;99930;;;;596744;236;24069;-76
2023/03/28 05:47:55;;;;;;;1.93;1.43;;;1.80;99.90;2.20;99943;;;;596510;236;24055;-77
2023/03/28 05:50:20;;;;;;;8.07;3.67;;;3.00;99.90;3.70;99958;;;;606016;236;24037;-82
2023/03/28 05:52:48;;;;;;;5.93;2.00;;;4.50;99.90;4.70;99960;;;;596557;236;24044;-80
2023/03/28 05:55:16;;;;;;;8.33;2.50;;;5.60;99.90;5.20;99962;;;;606157;233;24034;-82
2023/03/28 05:57:44;;;;;;;14.90;4.27;;;6.30;99.90;6.30;99968;;;;596532;236;25087;-82
2023/03/28 06:00:12;;;;;;;19.17;6.83;;;7.40;99.90;7.30;99972;;;;598182;236;24021;-82
2023/03/28 06:02:40;;;;;;;23.80;7.57;;;8.30;99.90;7.00;99975;;;;601913;236;24032;-82
2023/03/28 06:05:11;;;;;;;37.60;9.50;;;8.60;99.90;7.10;99978;;;;597235;236;24024;-82
2023/03/28 06:07:40;;;;;;;15.03;5.87;;;8.60;99.90;7.20;99989;;;;597528;236;24032;-81
2023/03/28 06:10:08;;;;;;;8.23;4.10;;;8.60;99.90;8.00;99993;;;;597060;236;24026;-82
2023/03/28 06:12:36;;;;;;;5.17;2.73;;;9.30;99.90;7.40;99983;;;;606684;236;24027;-80
2023/03/28 06:15:04;;;;;;;2.13;1.80;;;8.10;99.90;6.00;99991;;;;597537;236;24030;-78
2023/03/28 06:17:32;;;;;;;1.83;1.73;;;8.10;99.90;4.50;99979;;;;597433;236;24029;-76
2023/03/28 06:20:00;;;;;;;1.60;1.43;;;6.80;99.90;3.60;99985;;;;606773;236;24028;-76
2023/03/28 06:22:28;;;;;;;3.17;1.53;;;5.70;99.90;4.10;99990;;;;597289;236;24021;-76
2023/03/28 06:24:57;;;;;;;6.30;3.37;;;6.50;99.90;5.90;99992;;;;592133;236;34867;-80
2023/03/28 06:27:25;;;;;;;6.33;3.47;;;6.60;99.90;7.90;100004;;;;596886;236;25354;-77
2023/03/28 06:29:52;;;;;;;2.00;1.80;;;8.30;99.90;9.80;100017;;;;596975;236;24006;-80
2023/03/28 06:32:21;;;;;;;18.43;5.30;;;10.20;99.90;11.30;100030;;;;596850;236;24035;-78
2023/03/28 06:34:48;;;;;;;6.50;3.43;;;11.90;99.90;11.50;100032;;;;596731;236;24062;-79
2023/03/28 06:37:16;;;;;;;11.60;5.50;;;12.60;99.90;10.80;100028;;;;596652;236;24043;-76
2023/03/28 06:39:49;;;;;;;4.67;3.00;;;12.40;99.90;11.20;100020;;;;596454;236;25093;-76
2023/03/28 06:42:13;;;;;;;13.70;4.97;;;12.40;99.90;12.20;100031;;;;596274;236;24116;-75
2023/03/28 06:44:41;;;;;;;3.30;1.83;;;13.10;99.90;12.90;100044;;;;596540;236;24028;-76
2023/03/28 06:47:09;;;;;;;1.60;1.50;;;13.80;99.90;13.60;100044;;;;596956;236;24016;-77
2023/03/28 06:49:37;;;;;;;10.80;4.47;;;14.40;99.90;14.30;100050;;;;596625;236;24052;-75
2023/03/28 06:52:06;;;;;;;4.00;2.40;;;15.00;99.90;15.20;100074;;;;596450;236;24068;-77
2023/03/28 06:54:34;;;;;;;1.50;1.40;;;15.90;99.90;15.30;100069;;;;596631;236;24078;-78
2023/03/28 06:57:02;;;;;;;5.03;2.13;;;16.30;99.90;15.20;100079;;;;596585;236;24089;-77
2023/03/28 06:59:30;;;;;;;12.47;4.47;;;16.30;99.90;14.10;100081;;;;596681;236;24025;-77
2023/03/28 07:01:57;;;;;;;3.30;1.70;;;15.50;99.90;14.40;100091;;;;596591;236;24042;-77
2023/03/28 07:04:25;;;;;;;12.03;4.73;;;15.40;99.90;15.30;100088;;;;596443;236;24103;-77
2023/03/28 07:06:53;;;;;;;7.30;2.50;;;16.00;99.90;15.40;100092;;;;596595;236;24072;-80
2023/03/28 07:09:21;;;;;;;3.70;2.03;;;16.30;99.90;14.00;100099;;;;596496;236;24038;-77
2023/03/28 07:11:50;;;;;;;1.80;1.67;;;14.10;99.90;12.40;100100;;;;597944;236;24100;-77
2023/03/28 07:14:19;;;;;;;2.63;1.73;;;13.80;99.90;12.70;100104;;;;597769;236;24085;-78
2023/03/28 07:16:47;;;;;;;4.77;1.73;;;13.70;99.90;12.00;100099;;;;597796;236;24090;-78
2023/03/28 07:19:14;;;;;;;1.37;1.27;;;13.20;99.90;13.20;100100;;;;597778;236;24132;-77
2023/03/28 07:21:42;;;;;;;7.10;3.10;;;13.80;99.90;12.90;100106;;;;597491;236;24021;-77
2023/03/28 07:24:10;;;;;;;4.07;2.43;;;13.90;99.90;11.70;100101;;;;597505;236;24006;-76
2023/03/28 07:26:38;;;;;;;1.80;1.70;;;13.00;99.90;10.60;100110;;;;597528;236;24038;-77
2023/03/28 07:29:09;;;;;;;2.97;1.67;;;12.10;99.90;11.00;100116;;;;606581;236;24032;-76
2023/03/28 07:31:34;;;;;;;4.00;2.40;;;11.90;99.90;11.80;100114;;;;596874;232;24024;-76
2023/03/28 07:34:02;;;;;;;2.97;1.60;;;12.50;99.90;11.50;100122;;;;596787;236;24029;-77
2023/03/28 07:36:30;;;;;;;5.23;2.03;;;12.40;99.90;11.80;100128;;;;596912;236;24043;-76
2023/03/28 07:38:58;;;;;;;2.10;1.40;;;12.60;99.90;11.90;100126;;;;596751;236;24029;-76
2023/03/28 07:41:26;;;;;;;4.67;1.90;;;12.80;99.90;11.20;100130;;;;596961;236;24133;-77
2023/03/28 07:43:54;;;;;;;2.33;1.77;;;12.50;99.40;9.40;100147;;;;596808;236;24031;-75
2023/03/28 07:46:25;;;;;;;1.00;0.90;;;11.20;95.30;7.90;100132;;;;597153;236;24050;-76
2023/03/28 07:48:49;;;;;;;1.97;0.90;;;9.80;95.90;7.20;100127;;;;596576;236;24051;-76
2023/03/28 07:51:18;;;;;;;1.17;0.83;;;8.90;99.90;8.10;100136;;;;596545;236;24052;-76
2023/03/28 07:53:46;;;;;;;1.20;1.00;;;8.80;99.90;10.10;100146;;;;596626;236;24053;-74
2023/03/28 07:56:14;;;;;;;5.03;1.37;;;10.30;99.90;10.50;100147;;;;606090;236;24083;-75
2023/03/28 07:58:42;;;;;;;4.53;1.30;;;11.20;99.10;9.60;100170;;;;596652;236;24120;-76
2023/03/28 08:01:11;;;;;;;0.70;0.70;;;9.70;95.20;8.10;100157;;;;596596;236;24015;-76
2023/03/28 08:03:38;;;;;;;1.20;1.03;;;9.70;94.90;6.50;100163;;;;605823;233;24030;-75
2023/03/28 08:06:10;;;;;;;2.57;0.97;;;8.40;99.90;5.50;100158;;;;596725;236;24132;-75
2023/03/28 08:08:34;;;;;;;2.40;1.00;;;7.30;99.90;6.70;100174;;;;601101;236;24097;-76
2023/03/28 08:11:03;;;;;;;1.03;0.93;;;8.20;99.90;7.30;100173;;;;596831;236;24056;-76
2023/03/28 08:13:31;;;;;;;2.40;1.30;;;7.90;99.90;6.70;100176;;;;596662;236;25083;-75
2023/03/28 08:15:59;;;;;;;10.87;3.60;;;7.80;99.90;5.80;100170;;;;597231;236;24036;-75
2023/03/28 08:18:27;;;;;;;6.13;2.33;;;7.20;99.90;5.50;100167;;;;606652;236;24034;-74
2023/03/28 08:20:58;;;;;;;5.20;1.57;;;6.70;99.90;6.70;100180;;;;597139;236;24184;-74
2023/03/28 08:23:26;;;;;;;3.33;2.17;;;7.30;99.90;9.40;100194;;;;598141;236;24073;-78
2023/03/28 08:26:01;;;;;;;1.17;1.07;;;9.50;99.90;12.40;100204;;;;596700;236;24059;-81
2023/03/28 08:28:28;;;;;;;1.07;0.90;;;12.40;98.30;15.40;100198;;;;607080;236;24056;-81
2023/03/28 08:30:56;;;;;;;2.53;1.20;;;15.50;91.70;16.70;100202;;;;597297;236;24067;-81
2023/03/28 08:33:25;;;;;;;2.30;1.30;;;17.50;76.50;15.30;100211;;;;597281;236;24074;-76
2023/03/28 08:35:53;;;;;;;1.43;1.33;;;16.30;64.70;14.90;100215;;;;597172;236;24028;-76
2023/03/28 08:38:22;;;;;;;3.80;1.80;;;16.40;65.50;15.40;100217;;;;597063;236;24102;-76
2023/03/28 08:41:29;;;;;;;3.03;2.43;;;17.00;65.10;16.00;100214;;;;596955;236;24063;-76
2023/03/28 08:44:37;;;;;;;2.40;1.30;;;16.90;64.40;16.60;100221;;;;597223;236;24046;-78
2023/03/28 08:47:29;;;;;;;2.53;1.50;;;17.70;58.90;14.50;100231;;;;597296;236;24003;-76
2023/03/28 08:50:02;;;;;;;1.43;1.20;;;16.30;56.00;13.80;100228;;;;607459;236;24158;-75
2023/03/28 08:52:30;;;;;;;2.33;1.50;;;15.50;59.10;13.30;100243;;;;606090;236;24056;-75
2023/03/28 08:55:01;;;;;;;2.07;1.70;;;14.90;61.20;12.30;100243;;;;606268;236;24036;-75
2023/03/28 08:57:29;;;;;;;3.30;2.20;;;14.10;62.60;13.30;100247;;;;596615;236;24044;-74
2023/03/28 09:00:23;;;;;;;6.17;2.93;;;14.10;62.60;14.40;100244;;;;606063;236;24060;-81
2023/03/28 09:02:34;;;;;;;4.30;1.97;;;15.10;62.30;16.10;100260;;;;595388;236;24051;-76
2023/03/28 09:05:02;;;;;;;4.83;2.73;;;16.60;61.40;17.40;100258;;;;596650;236;24019;-81
2023/03/28 09:07:43;;;;;;;5.13;2.57;;;18.10;55.20;17.30;100270;;;;596492;236;24052;-80
2023/03/28 09:10:28;;;;;;;11.63;6.00;;;18.40;52.60;17.00;100261;;;;606426;236;24046;-80
2023/03/28 09:13:26;;;;;;;5.67;2.73;;;18.10;53.30;18.20;100277;;;;596531;236;24057;-81
2023/03/28 09:16:17;;;;;;;4.57;1.70;;;19.00;52.50;18.70;100276;;;;605979;236;24037;-76
2023/03/28 09:19:14;;;;;;;5.13;2.30;;;19.70;49.10;19.00;100288;;;;606566;236;24022;-77
2023/03/28 09:22:18;;;;;;;7.67;3.40;;;20.10;50.00;16.80;100280;;;;596902;236;24026;-81
2023/03/28 09:25:17;;;;;;;6.43;2.93;;;16.20;51.40;13.50;100283;;;;596939;236;24041;-77
2023/03/28 09:28:00;;;;;;;4.10;2.10;;;16.20;51.40;11.20;100283;;;;596817;236;24084;-75
2023/03/28 09:30:40;;;;;;;9.30;3.67;;;12.80;61.40;11.30;100281;;;;595826;236;24064;-78
2023/03/28 09:33:14;;;;;;;10.67;4.00;;;13.40;59.80;12.60;100280;;;;606694;232;25080;-75
2023/03/28 09:35:42;;;;;;;5.83;1.93;;;14.80;59.00;14.10;100297;;;;607737;236;24036;-76
2023/03/28 09:38:10;;;;;;;6.53;3.27;;;14.80;59.00;15.50;100283;;;;597590;236;24062;-75
2023/03/28 09:40:41;;;;;;;9.03;2.93;;;16.20;53.80;15.20;100291;;;;596674;236;24033;-75
2023/03/28 09:43:30;;;;;;;4.47;2.53;;;16.50;51.30;15.20;100283;;;;606489;236;24028;-76
2023/03/28 09:46:13;;;;;;;3.70;1.33;;;16.60;51.40;16.50;100287;;;;602618;236;24012;-76
2023/03/28 09:48:41;;;;;;;7.93;3.47;;;17.60;50.60;17.20;100306;;;;606306;236;24046;-82
2023/03/28 09:51:09;;;;;;;10.90;5.33;;;18.50;48.20;17.80;100306;;;;597114;236;24027;-75
2023/03/28 09:53:37;;;;;;;7.50;3.40;;;19.20;46.60;17.60;100303;;;;596389;232;24080;-77
2023/03/28 09:56:32;;;;;;;4.57;2.73;;;19.40;45.30;17.50;100318;;;;606329;236;24081;-76
2023/03/28 09:59:04;;;;;;;1.50;1.40;;;18.70;45.20;16.70;100319;;;;594695;236;24148;-77
2023/03/28 10:01:43;;;;;;;1.60;1.40;;;18.70;45.20;17.30;100316;;;;596976;236;24070;-75
2023/03/28 10:04:10;;;;;;;4.47;2.00;;;18.90;46.40;17.30;100321;;;;597143;236;24076;-77
2023/03/28 10:06:39;;;;;;;3.37;1.87;;;19.10;45.60;17.70;100333;;;;596441;236;24070;-77
2023/03/28 10:09:22;;;;;;;2.47;1.60;;;19.50;44.70;17.70;100340;;;;596914;236;24081;-75
2023/03/28 10:11:56;;;;;;;5.27;3.60;;;19.50;44.70;16.80;100347;;;;596778;236;24013;-76
2023/03/28 10:14:39;;;;;;;7.47;2.70;;;18.90;46.20;15.80;100367;;;;606260;233;24132;-76
2023/03/28 10:17:07;;;;;;;2.10;1.40;;;18.10;47.00;13.30;100368;;;;596783;236;24041;-76
2023/03/28 10:19:34;;;;;;;2.10;1.23;;;16.10;59.00;11.60;100355;;;;605735;236;24044;-76
2023/03/28 10:22:06;;;;;;;3.53;1.97;;;14.10;62.40;9.70;100358;;;;605791;236;24084;-77
2023/03/28 10:24:35;;;;;;;1.17;0.70;;;12.20;68.30;7.80;100357;;;;604924;236;24062;-81
2023/03/28 10:27:13;;;;;;;1.17;1.13;;;10.30;79.70;6.80;100361;;;;605682;236;24085;-78
2023/03/28 10:29:40;;;;;;;1.23;1.00;;;8.80;92.00;6.10;100357;;;;600306;236;24058;-80
2023/03/28 10:32:08;;;;;;;1.37;1.27;;;7.80;99.90;5.40;100351;;;;596842;236;24049;-79
2023/03/28 10:34:36;;;;;;;4.90;2.57;;;7.00;99.90;4.70;100366;;;;605529;236;24078;-74
2023/03/28 10:37:04;;;;;;;1.37;1.07;;;6.20;99.90;4.20;100358;;;;596416;236;24047;-76
2023/03/28 10:39:32;;;;;;;2.13;1.30;;;5.70;99.90;3.70;100353;;;;602255;236;24057;-75
2023/03/28 10:42:00;;;;;;;2.10;1.20;;;5.10;99.90;3.30;100354;;;;596539;236;24012;-75
2023/03/28 10:44:31;;;;;;;2.80;1.00;;;4.70;99.90;3.20;100363;;;;605858;236;24149;-75
2023/03/28 10:47:07;;;;;;;6.43;1.63;;;4.40;99.90;3.00;100369;;;;607559;235;24058;-76
2023/03/28 10:49:47;;;;;;;9.57;4.60;;;4.20;99.90;2.80;100372;;;;606491;236;24039;-75
2023/03/28 10:52:33;;;;;;;3.53;1.47;;;3.90;99.90;2.40;100372;;;;598155;236;24057;-76
2023/03/28 10:55:15;;;;;;;8.03;4.63;;;3.60;99.90;2.20;100368;;;;606457;236;24049;-76
2023/03/28 10:57:46;;;;;;;6.03;2.90;;;3.30;99.90;2.00;100379;;;;596751;236;24040;-75
2023/03/28 11:00:15;;;;;;;3.60;1.33;;;2.90;99.90;1.90;100381;;;;606003;236;24053;-75
2023/03/28 11:03:10;;;;;;;8.03;3.87;;;2.90;99.90;1.50;100372;;;;606233;236;24075;-75
2023/03/28 11:05:56;;;;;;;9.43;4.27;;;2.70;99.90;1.30;100376;;;;606038;236;24139;-76
2023/03/28 11:08:39;;;;;;;6.43;3.33;;;2.40;99.90;1.20;100374;;;;600293;236;24033;-75
2023/03/28 11:11:45;;;;;;;6.33;2.83;;;2.10;99.90;1.00;100384;;;;596364;236;24131;-74
2023/03/28 11:14:30;;;;;;;4.27;2.17;;;2.10;99.90;0.90;100382;;;;600551;236;24048;-74
2023/03/28 11:17:07;;;;;;;2.30;1.60;;;1.90;99.90;0.80;100388;;;;595721;236;24052;-74
2023/03/28 11:20:16;;;;;;;2.20;1.63;;;1.80;99.90;0.80;100391;;;;607166;236;27265;-75
2023/03/28 11:23:04;;;;;;;5.00;2.77;;;1.70;99.90;1.00;100400;;;;596966;236;24142;-76
2023/03/28 11:25:35;;;;;;;5.13;3.00;;;1.90;99.90;1.40;100384;;;;605911;236;24026;-74
2023/03/28 11:28:15;;;;;;;3.73;1.73;;;2.20;99.90;1.70;100406;;;;605582;236;24042;-74
2023/03/28 11:30:43;;;;;;;5.93;2.60;;;2.50;99.90;1.90;100401;;;;605559;236;24121;-75
2023/03/28 11:33:38;;;;;;;6.37;3.10;;;2.80;99.90;2.20;100413;;;;605934;236;24051;-77
2023/03/28 11:36:07;;;;;;;2.63;1.53;;;3.10;99.90;2.10;100414;;;;596788;236;24126;-74
2023/03/28 11:38:47;;;;;;;5.90;2.20;;;3.10;99.90;1.80;100417;;;;605535;236;24162;-74
2023/03/28 11:41:20;;;;;;;1.80;1.70;;;2.90;99.90;1.40;100418;;;;596713;236;24036;-75